sensor_id;sensor_type;location;lat;lon;timestamp;P1;durP1;ratioP1;P2;durP2;ratioP2
55090;SDS011;40985;53.180;5.800;2023-05-24T00:01:40;19.85;;;2.70;;
55090;SDS011;40985;53.180;5.800;2023-05-24T00:04:06;22.80;;;3.63;;
55090;SDS011;40985;53.180;5.800;2023-05-24T00:06:33;23.30;;;3.72;;
55090;SDS011;40985;53.180;5.800;2023-05-24T00:09:05;25.98;;;2.72;;
55090;SDS011;40985;53.180;5.800;2023-05-24T00:11:31;21.65;;;2.55;;
55090;SDS011;40985;53.180;5.800;2023-05-24T00:13:57;23.35;;;3.67;;
55090;SDS011;40985;53.180;5.800;2023-05-24T00:16:22;23.67;;;3.05;;
55090;SDS011;40985;53.180;5.800;2023-05-24T00:18:48;21.35;;;3.05;;
55090;SDS011;40985;53.180;5.800;2023-05-24T00:21:14;23.95;;;2.92;;
55090;SDS011;40985;53.180;5.800;2023-05-24T00:23:40;22.90;;;3.88;;
55090;SDS011;40985;53.180;5.800;2023-05-24T00:26:06;24.00;;;2.90;;
55090;SDS011;40985;53.180;5.800;2023-05-24T00:28:32;22.52;;;3.08;;
55090;SDS011;40985;53.180;5.800;2023-05-24T00:30:59;20.27;;;3.05;;
55090;SDS011;40985;53.180;5.800;2023-05-24T00:33:25;22.88;;;3.20;;
55090;SDS011;40985;53.180;5.800;2023-05-24T00:35:52;18.40;;;2.40;;
55090;SDS011;40985;53.180;5.800;2023-05-24T00:38:24;26.63;;;3.60;;
55090;SDS011;40985;53.180;5.800;2023-05-24T00:40:50;17.65;;;2.53;;
55090;SDS011;40985;53.180;5.800;2023-05-24T00:43:17;22.67;;;3.10;;
55090;SDS011;40985;53.180;5.800;2023-05-24T00:45:43;23.95;;;4.07;;
55090;SDS011;40985;53.180;5.800;2023-05-24T00:48:09;24.52;;;3.17;;
55090;SDS011;40985;53.180;5.800;2023-05-24T00:50:38;19.42;;;1.92;;
55090;SDS011;40985;53.180;5.800;2023-05-24T00:53:04;18.48;;;2.17;;
55090;SDS011;40985;53.180;5.800;2023-05-24T00:55:31;20.42;;;3.63;;
55090;SDS011;40985;53.180;5.800;2023-05-24T00:57:59;24.73;;;2.75;;
55090;SDS011;40985;53.180;5.800;2023-05-24T01:00:26;18.85;;;2.58;;
55090;SDS011;40985;53.180;5.800;2023-05-24T01:02:53;19.33;;;2.60;;
55090;SDS011;40985;53.180;5.800;2023-05-24T01:05:19;18.10;;;2.40;;
55090;SDS011;40985;53.180;5.800;2023-05-24T01:16:21;19.63;;;2.65;;
55090;SDS011;40985;53.180;5.800;2023-05-24T01:27:32;19.63;;;2.67;;
55090;SDS011;40985;53.180;5.800;2023-05-24T01:30:00;26.13;;;3.00;;
55090;SDS011;40985;53.180;5.800;2023-05-24T01:32:28;23.25;;;3.10;;
55090;SDS011;40985;53.180;5.800;2023-05-24T01:34:54;20.85;;;2.83;;
55090;SDS011;40985;53.180;5.800;2023-05-24T01:37:20;20.27;;;3.00;;
55090;SDS011;40985;53.180;5.800;2023-05-24T01:39:46;20.17;;;2.72;;
55090;SDS011;40985;53.180;5.800;2023-05-24T01:50:10;20.10;;;2.80;;
55090;SDS011;40985;53.180;5.800;2023-05-24T01:52:43;16.92;;;2.20;;
55090;SDS011;40985;53.180;5.800;2023-05-24T01:55:11;17.02;;;2.53;;
55090;SDS011;40985;53.180;5.800;2023-05-24T01:57:40;24.48;;;3.45;;
55090;SDS011;40985;53.180;5.800;2023-05-24T02:00:10;19.90;;;2.65;;
55090;SDS011;40985;53.180;5.800;2023-05-24T02:02:38;22.52;;;3.15;;
55090;SDS011;40985;53.180;5.800;2023-05-24T02:05:04;20.27;;;3.35;;
55090;SDS011;40985;53.180;5.800;2023-05-24T02:07:30;21.02;;;2.28;;
55090;SDS011;40985;53.180;5.800;2023-05-24T02:09:55;18.92;;;2.00;;
55090;SDS011;40985;53.180;5.800;2023-05-24T02:12:21;19.77;;;2.88;;
55090;SDS011;40985;53.180;5.800;2023-05-24T02:14:46;20.10;;;2.53;;
55090;SDS011;40985;53.180;5.800;2023-05-24T02:17:15;23.35;;;2.80;;
55090;SDS011;40985;53.180;5.800;2023-05-24T02:19:43;17.95;;;2.13;;
55090;SDS011;40985;53.180;5.800;2023-05-24T02:22:09;15.23;;;2.10;;
55090;SDS011;40985;53.180;5.800;2023-05-24T02:24:36;17.92;;;2.47;;
55090;SDS011;40985;53.180;5.800;2023-05-24T02:27:04;21.80;;;2.85;;
55090;SDS011;40985;53.180;5.800;2023-05-24T02:29:30;25.83;;;2.97;;
55090;SDS011;40985;53.180;5.800;2023-05-24T02:31:56;21.98;;;3.13;;
55090;SDS011;40985;53.180;5.800;2023-05-24T02:34:22;23.52;;;2.92;;
55090;SDS011;40985;53.180;5.800;2023-05-24T02:36:48;19.40;;;2.33;;
55090;SDS011;40985;53.180;5.800;2023-05-24T02:39:14;13.82;;;2.38;;
55090;SDS011;40985;53.180;5.800;2023-05-24T02:41:39;21.17;;;2.47;;
55090;SDS011;40985;53.180;5.800;2023-05-24T02:44:05;19.98;;;2.40;;
55090;SDS011;40985;53.180;5.800;2023-05-24T02:46:31;15.13;;;2.17;;
55090;SDS011;40985;53.180;5.800;2023-05-24T02:48:57;21.60;;;3.33;;
55090;SDS011;40985;53.180;5.800;2023-05-24T02:51:22;18.10;;;2.65;;
55090;SDS011;40985;53.180;5.800;2023-05-24T02:53:48;18.10;;;2.90;;
55090;SDS011;40985;53.180;5.800;2023-05-24T02:56:14;17.40;;;2.55;;
55090;SDS011;40985;53.180;5.800;2023-05-24T02:58:41;19.58;;;2.42;;
55090;SDS011;40985;53.180;5.800;2023-05-24T03:01:10;19.98;;;2.42;;
55090;SDS011;40985;53.180;5.800;2023-05-24T03:03:39;18.58;;;2.28;;
55090;SDS011;40985;53.180;5.800;2023-05-24T03:06:05;14.32;;;2.22;;
55090;SDS011;40985;53.180;5.800;2023-05-24T03:08:32;14.60;;;2.35;;
55090;SDS011;40985;53.180;5.800;2023-05-24T03:10:58;15.18;;;2.85;;
55090;SDS011;40985;53.180;5.800;2023-05-24T03:13:24;15.32;;;1.80;;
55090;SDS011;40985;53.180;5.800;2023-05-24T03:15:49;19.58;;;2.45;;
55090;SDS011;40985;53.180;5.800;2023-05-24T03:18:15;14.45;;;2.45;;
55090;SDS011;40985;53.180;5.800;2023-05-24T03:20:41;21.30;;;2.00;;
55090;SDS011;40985;53.180;5.800;2023-05-24T03:23:06;15.73;;;2.53;;
55090;SDS011;40985;53.180;5.800;2023-05-24T03:25:33;22.15;;;2.38;;
55090;SDS011;40985;53.180;5.800;2023-05-24T03:27:59;23.10;;;2.70;;
55090;SDS011;40985;53.180;5.800;2023-05-24T03:30:26;18.75;;;2.10;;
55090;SDS011;40985;53.180;5.800;2023-05-24T03:32:52;16.67;;;2.88;;
55090;SDS011;40985;53.180;5.800;2023-05-24T03:35:18;17.60;;;1.70;;
55090;SDS011;40985;53.180;5.800;2023-05-24T03:37:44;13.13;;;1.67;;
55090;SDS011;40985;53.180;5.800;2023-05-24T03:40:10;17.33;;;2.17;;
55090;SDS011;40985;53.180;5.800;2023-05-24T03:42:36;22.33;;;2.60;;
55090;SDS011;40985;53.180;5.800;2023-05-24T03:45:04;16.17;;;1.58;;
55090;SDS011;40985;53.180;5.800;2023-05-24T03:47:30;15.50;;;1.85;;
55090;SDS011;40985;53.180;5.800;2023-05-24T03:49:56;19.52;;;2.70;;
55090;SDS011;40985;53.180;5.800;2023-05-24T03:52:22;19.40;;;2.50;;
55090;SDS011;40985;53.180;5.800;2023-05-24T03:54:48;19.13;;;2.53;;
55090;SDS011;40985;53.180;5.800;2023-05-24T03:57:13;19.33;;;2.33;;
55090;SDS011;40985;53.180;5.800;2023-05-24T03:59:39;21.52;;;2.95;;
55090;SDS011;40985;53.180;5.800;2023-05-24T04:02:05;15.13;;;2.80;;
55090;SDS011;40985;53.180;5.800;2023-05-24T04:04:31;16.75;;;3.25;;
55090;SDS011;40985;53.180;5.800;2023-05-24T04:06:58;15.77;;;2.05;;
55090;SDS011;40985;53.180;5.800;2023-05-24T04:09:23;12.55;;;2.10;;
55090;SDS011;40985;53.180;5.800;2023-05-24T04:11:49;17.85;;;2.33;;
55090;SDS011;40985;53.180;5.800;2023-05-24T04:14:15;16.48;;;2.00;;
55090;SDS011;40985;53.180;5.800;2023-05-24T04:16:41;19.67;;;2.75;;
55090;SDS011;40985;53.180;5.800;2023-05-24T04:19:09;15.50;;;2.25;;
55090;SDS011;40985;53.180;5.800;2023-05-24T04:21:38;20.75;;;2.53;;
55090;SDS011;40985;53.180;5.800;2023-05-24T04:24:04;20.20;;;2.40;;
55090;SDS011;40985;53.180;5.800;2023-05-24T04:26:30;23.42;;;2.67;;
55090;SDS011;40985;53.180;5.800;2023-05-24T04:28:57;16.27;;;1.98;;
55090;SDS011;40985;53.180;5.800;2023-05-24T04:31:23;17.77;;;2.05;;
55090;SDS011;40985;53.180;5.800;2023-05-24T04:33:50;19.08;;;2.65;;
55090;SDS011;40985;53.180;5.800;2023-05-24T04:36:16;16.70;;;2.22;;
55090;SDS011;40985;53.180;5.800;2023-05-24T04:38:42;18.83;;;2.17;;
55090;SDS011;40985;53.180;5.800;2023-05-24T04:41:09;15.27;;;1.73;;
55090;SDS011;40985;53.180;5.800;2023-05-24T04:43:36;14.60;;;1.88;;
55090;SDS011;40985;53.180;5.800;2023-05-24T04:46:02;17.45;;;2.20;;
55090;SDS011;40985;53.180;5.800;2023-05-24T04:48:28;13.80;;;2.35;;
55090;SDS011;40985;53.180;5.800;2023-05-24T04:50:54;21.55;;;2.88;;
55090;SDS011;40985;53.180;5.800;2023-05-24T04:53:20;20.42;;;1.83;;
55090;SDS011;40985;53.180;5.800;2023-05-24T04:55:47;17.15;;;2.35;;
55090;SDS011;40985;53.180;5.800;2023-05-24T04:58:13;20.92;;;3.38;;
55090;SDS011;40985;53.180;5.800;2023-05-24T05:00:40;20.10;;;2.75;;
55090;SDS011;40985;53.180;5.800;2023-05-24T05:03:06;18.92;;;2.30;;
55090;SDS011;40985;53.180;5.800;2023-05-24T05:05:32;16.42;;;2.03;;
55090;SDS011;40985;53.180;5.800;2023-05-24T05:07:58;14.32;;;1.80;;
55090;SDS011;40985;53.180;5.800;2023-05-24T05:10:24;20.65;;;2.20;;
55090;SDS011;40985;53.180;5.800;2023-05-24T05:12:50;16.85;;;2.42;;
55090;SDS011;40985;53.180;5.800;2023-05-24T05:15:16;17.35;;;2.00;;
55090;SDS011;40985;53.180;5.800;2023-05-24T05:17:41;14.65;;;2.05;;
55090;SDS011;40985;53.180;5.800;2023-05-24T05:20:07;18.02;;;2.33;;
55090;SDS011;40985;53.180;5.800;2023-05-24T05:22:33;16.02;;;2.88;;
55090;SDS011;40985;53.180;5.800;2023-05-24T05:24:59;21.98;;;2.92;;
55090;SDS011;40985;53.180;5.800;2023-05-24T05:27:25;17.65;;;2.25;;
55090;SDS011;40985;53.180;5.800;2023-05-24T05:29:51;13.95;;;1.70;;
55090;SDS011;40985;53.180;5.800;2023-05-24T05:32:17;19.33;;;2.30;;
55090;SDS011;40985;53.180;5.800;2023-05-24T05:34:42;21.42;;;3.50;;
55090;SDS011;40985;53.180;5.800;2023-05-24T05:37:09;17.75;;;2.10;;
55090;SDS011;40985;53.180;5.800;2023-05-24T05:39:34;14.68;;;2.05;;
55090;SDS011;40985;53.180;5.800;2023-05-24T05:42:00;14.48;;;2.08;;
55090;SDS011;40985;53.180;5.800;2023-05-24T05:44:26;17.40;;;1.92;;
55090;SDS011;40985;53.180;5.800;2023-05-24T05:46:52;16.55;;;2.33;;
55090;SDS011;40985;53.180;5.800;2023-05-24T05:49:18;21.20;;;2.50;;
55090;SDS011;40985;53.180;5.800;2023-05-24T05:51:44;17.83;;;3.05;;
55090;SDS011;40985;53.180;5.800;2023-05-24T05:54:11;20.52;;;2.35;;
55090;SDS011;40985;53.180;5.800;2023-05-24T05:56:42;14.80;;;2.10;;
55090;SDS011;40985;53.180;5.800;2023-05-24T05:59:10;14.30;;;1.52;;
55090;SDS011;40985;53.180;5.800;2023-05-24T06:01:36;14.85;;;1.88;;
55090;SDS011;40985;53.180;5.800;2023-05-24T06:04:02;11.32;;;1.50;;
55090;SDS011;40985;53.180;5.800;2023-05-24T06:06:28;20.38;;;1.90;;
55090;SDS011;40985;53.180;5.800;2023-05-24T06:08:54;20.15;;;2.60;;
55090;SDS011;40985;53.180;5.800;2023-05-24T06:11:19;17.20;;;2.72;;
55090;SDS011;40985;53.180;5.800;2023-05-24T06:13:45;12.25;;;1.73;;
55090;SDS011;40985;53.180;5.800;2023-05-24T06:16:11;17.05;;;1.73;;
55090;SDS011;40985;53.180;5.800;2023-05-24T06:18:38;11.48;;;1.48;;
55090;SDS011;40985;53.180;5.800;2023-05-24T06:21:04;15.00;;;1.60;;
55090;SDS011;40985;53.180;5.800;2023-05-24T06:23:34;13.68;;;1.88;;
55090;SDS011;40985;53.180;5.800;2023-05-24T06:26:03;13.20;;;1.98;;
55090;SDS011;40985;53.180;5.800;2023-05-24T06:28:29;17.90;;;2.63;;
55090;SDS011;40985;53.180;5.800;2023-05-24T06:30:55;15.25;;;1.60;;
55090;SDS011;40985;53.180;5.800;2023-05-24T06:33:21;11.75;;;1.15;;
55090;SDS011;40985;53.180;5.800;2023-05-24T06:35:47;19.80;;;3.10;;
55090;SDS011;40985;53.180;5.800;2023-05-24T06:38:12;16.08;;;1.73;;
55090;SDS011;40985;53.180;5.800;2023-05-24T06:40:38;16.63;;;2.72;;
55090;SDS011;40985;53.180;5.800;2023-05-24T06:43:04;19.58;;;2.25;;
55090;SDS011;40985;53.180;5.800;2023-05-24T06:45:30;13.55;;;2.35;;
55090;SDS011;40985;53.180;5.800;2023-05-24T06:47:56;11.95;;;1.38;;
55090;SDS011;40985;53.180;5.800;2023-05-24T06:50:21;17.83;;;1.58;;
55090;SDS011;40985;53.180;5.800;2023-05-24T06:52:47;19.27;;;1.60;;
55090;SDS011;40985;53.180;5.800;2023-05-24T06:55:13;14.10;;;1.40;;
55090;SDS011;40985;53.180;5.800;2023-05-24T06:57:39;15.27;;;1.50;;
55090;SDS011;40985;53.180;5.800;2023-05-24T07:00:05;9.13;;;0.75;;
55090;SDS011;40985;53.180;5.800;2023-05-24T07:02:36;10.98;;;1.27;;
55090;SDS011;40985;53.180;5.800;2023-05-24T07:05:03;15.52;;;2.33;;
55090;SDS011;40985;53.180;5.800;2023-05-24T07:07:30;11.05;;;1.20;;
55090;SDS011;40985;53.180;5.800;2023-05-24T07:09:56;17.33;;;1.77;;
55090;SDS011;40985;53.180;5.800;2023-05-24T07:12:22;11.75;;;1.38;;
55090;SDS011;40985;53.180;5.800;2023-05-24T07:14:47;14.68;;;1.35;;
55090;SDS011;40985;53.180;5.800;2023-05-24T07:17:13;12.55;;;2.28;;
55090;SDS011;40985;53.180;5.800;2023-05-24T07:19:39;11.23;;;1.10;;
55090;SDS011;40985;53.180;5.800;2023-05-24T07:22:05;12.15;;;1.30;;
55090;SDS011;40985;53.180;5.800;2023-05-24T07:24:31;10.43;;;1.35;;
55090;SDS011;40985;53.180;5.800;2023-05-24T07:26:57;11.35;;;1.13;;
55090;SDS011;40985;53.180;5.800;2023-05-24T07:29:23;8.88;;;1.50;;
55090;SDS011;40985;53.180;5.800;2023-05-24T07:31:48;7.05;;;0.80;;
55090;SDS011;40985;53.180;5.800;2023-05-24T07:34:14;12.27;;;1.38;;
55090;SDS011;40985;53.180;5.800;2023-05-24T07:36:40;13.50;;;1.60;;
55090;SDS011;40985;53.180;5.800;2023-05-24T07:39:06;9.88;;;1.30;;
55090;SDS011;40985;53.180;5.800;2023-05-24T07:41:34;6.70;;;0.80;;
55090;SDS011;40985;53.180;5.800;2023-05-24T07:44:00;13.00;;;1.85;;
55090;SDS011;40985;53.180;5.800;2023-05-24T07:46:26;8.75;;;0.80;;
55090;SDS011;40985;53.180;5.800;2023-05-24T07:48:52;10.55;;;1.27;;
55090;SDS011;40985;53.180;5.800;2023-05-24T07:51:17;7.35;;;1.10;;
55090;SDS011;40985;53.180;5.800;2023-05-24T07:53:44;12.95;;;0.90;;
55090;SDS011;40985;53.180;5.800;2023-05-24T07:56:10;9.43;;;1.45;;
55090;SDS011;40985;53.180;5.800;2023-05-24T07:58:36;12.57;;;1.33;;
55090;SDS011;40985;53.180;5.800;2023-05-24T08:01:04;12.60;;;1.25;;
55090;SDS011;40985;53.180;5.800;2023-05-24T08:03:30;12.50;;;1.35;;
55090;SDS011;40985;53.180;5.800;2023-05-24T08:05:56;11.80;;;0.98;;
55090;SDS011;40985;53.180;5.800;2023-05-24T08:08:22;11.45;;;1.00;;
55090;SDS011;40985;53.180;5.800;2023-05-24T08:10:48;14.27;;;2.25;;
55090;SDS011;40985;53.180;5.800;2023-05-24T08:13:14;11.07;;;1.35;;
55090;SDS011;40985;53.180;5.800;2023-05-24T08:15:39;10.13;;;1.48;;
55090;SDS011;40985;53.180;5.800;2023-05-24T08:18:05;10.75;;;1.52;;
55090;SDS011;40985;53.180;5.800;2023-05-24T08:20:31;11.02;;;0.88;;
55090;SDS011;40985;53.180;5.800;2023-05-24T08:23:00;14.43;;;1.98;;
55090;SDS011;40985;53.180;5.800;2023-05-24T08:25:26;9.07;;;1.00;;
55090;SDS011;40985;53.180;5.800;2023-05-24T08:27:53;11.77;;;1.77;;
55090;SDS011;40985;53.180;5.800;2023-05-24T08:30:21;10.57;;;0.93;;
55090;SDS011;40985;53.180;5.800;2023-05-24T08:32:47;10.25;;;1.48;;
55090;SDS011;40985;53.180;5.800;2023-05-24T08:35:13;11.75;;;1.35;;
55090;SDS011;40985;53.180;5.800;2023-05-24T08:37:38;8.20;;;1.55;;
55090;SDS011;40985;53.180;5.800;2023-05-24T08:40:04;10.43;;;1.58;;
55090;SDS011;40985;53.180;5.800;2023-05-24T08:42:33;12.07;;;2.13;;
55090;SDS011;40985;53.180;5.800;2023-05-24T08:45:09;12.52;;;1.45;;
55090;SDS011;40985;53.180;5.800;2023-05-24T08:47:36;9.25;;;0.88;;
55090;SDS011;40985;53.180;5.800;2023-05-24T08:50:03;11.05;;;1.33;;
55090;SDS011;40985;53.180;5.800;2023-05-24T08:52:30;11.65;;;1.17;;
55090;SDS011;40985;53.180;5.800;2023-05-24T08:54:59;11.90;;;1.40;;
55090;SDS011;40985;53.180;5.800;2023-05-24T08:57:30;11.00;;;1.15;;
55090;SDS011;40985;53.180;5.800;2023-05-24T08:59:58;11.75;;;1.50;;
55090;SDS011;40985;53.180;5.800;2023-05-24T09:02:25;10.32;;;1.38;;
55090;SDS011;40985;53.180;5.800;2023-05-24T09:04:51;9.32;;;1.10;;
55090;SDS011;40985;53.180;5.800;2023-05-24T09:07:18;7.50;;;1.38;;
55090;SDS011;40985;53.180;5.800;2023-05-24T09:09:49;9.75;;;1.63;;
55090;SDS011;40985;53.180;5.800;2023-05-24T09:12:21;7.03;;;0.93;;
55090;SDS011;40985;53.180;5.800;2023-05-24T09:14:47;8.60;;;1.15;;
55090;SDS011;40985;53.180;5.800;2023-05-24T09:17:14;11.77;;;1.35;;
55090;SDS011;40985;53.180;5.800;2023-05-24T09:19:46;7.22;;;0.98;;
55090;SDS011;40985;53.180;5.800;2023-05-24T09:22:14;9.73;;;1.58;;
55090;SDS011;40985;53.180;5.800;2023-05-24T09:24:47;8.65;;;1.10;;
55090;SDS011;40985;53.180;5.800;2023-05-24T09:27:17;6.20;;;0.80;;
55090;SDS011;40985;53.180;5.800;2023-05-24T09:29:46;8.73;;;0.93;;
55090;SDS011;40985;53.180;5.800;2023-05-24T09:32:20;8.00;;;0.70;;
55090;SDS011;40985;53.180;5.800;2023-05-24T09:34:49;7.70;;;1.05;;
55090;SDS011;40985;53.180;5.800;2023-05-24T09:37:17;8.60;;;0.90;;
55090;SDS011;40985;53.180;5.800;2023-05-24T09:39:45;12.98;;;1.85;;
55090;SDS011;40985;53.180;5.800;2023-05-24T09:42:16;10.43;;;1.15;;
55090;SDS011;40985;53.180;5.800;2023-05-24T09:45:04;6.82;;;0.90;;
55090;SDS011;40985;53.180;5.800;2023-05-24T09:47:33;8.30;;;1.00;;
55090;SDS011;40985;53.180;5.800;2023-05-24T09:50:01;6.65;;;1.10;;
55090;SDS011;40985;53.180;5.800;2023-05-24T09:52:27;11.75;;;1.67;;
55090;SDS011;40985;53.180;5.800;2023-05-24T09:54:53;8.57;;;0.90;;
55090;SDS011;40985;53.180;5.800;2023-05-24T09:57:19;6.90;;;1.10;;
55090;SDS011;40985;53.180;5.800;2023-05-24T09:59:49;7.55;;;0.85;;
55090;SDS011;40985;53.180;5.800;2023-05-24T10:02:16;7.10;;;1.10;;
55090;SDS011;40985;53.180;5.800;2023-05-24T10:04:45;6.85;;;1.83;;
55090;SDS011;40985;53.180;5.800;2023-05-24T10:07:11;6.28;;;0.80;;
55090;SDS011;40985;53.180;5.800;2023-05-24T10:09:37;4.95;;;1.15;;
55090;SDS011;40985;53.180;5.800;2023-05-24T10:12:04;7.40;;;1.70;;
55090;SDS011;40985;53.180;5.800;2023-05-24T10:14:35;6.35;;;0.85;;
55090;SDS011;40985;53.180;5.800;2023-05-24T10:17:02;11.82;;;1.42;;
55090;SDS011;40985;53.180;5.800;2023-05-24T10:19:29;10.05;;;1.20;;
55090;SDS011;40985;53.180;5.800;2023-05-24T10:21:59;5.45;;;0.85;;
55090;SDS011;40985;53.180;5.800;2023-05-24T10:24:31;9.10;;;1.27;;
55090;SDS011;40985;53.180;5.800;2023-05-24T10:26:59;11.25;;;1.20;;
55090;SDS011;40985;53.180;5.800;2023-05-24T10:29:40;13.50;;;1.40;;
55090;SDS011;40985;53.180;5.800;2023-05-24T10:32:12;8.95;;;1.40;;
55090;SDS011;40985;53.180;5.800;2023-05-24T10:34:40;12.60;;;1.60;;
55090;SDS011;40985;53.180;5.800;2023-05-24T10:37:07;12.30;;;1.40;;
55090;SDS011;40985;53.180;5.800;2023-05-24T10:39:34;10.73;;;1.17;;
55090;SDS011;40985;53.180;5.800;2023-05-24T10:42:03;6.40;;;0.88;;
55090;SDS011;40985;53.180;5.800;2023-05-24T10:44:30;10.55;;;0.82;;
55090;SDS011;40985;53.180;5.800;2023-05-24T10:47:14;9.93;;;1.20;;
55090;SDS011;40985;53.180;5.800;2023-05-24T10:49:51;6.03;;;0.93;;
55090;SDS011;40985;53.180;5.800;2023-05-24T10:52:21;8.75;;;1.45;;
55090;SDS011;40985;53.180;5.800;2023-05-24T10:57:28;10.00;;;1.30;;
55090;SDS011;40985;53.180;5.800;2023-05-24T10:59:56;7.00;;;0.85;;
55090;SDS011;40985;53.180;5.800;2023-05-24T11:02:22;9.40;;;1.23;;
55090;SDS011;40985;53.180;5.800;2023-05-24T11:04:52;10.50;;;1.60;;
55090;SDS011;40985;53.180;5.800;2023-05-24T11:07:18;6.65;;;1.30;;
55090;SDS011;40985;53.180;5.800;2023-05-24T11:09:44;8.13;;;0.80;;
55090;SDS011;40985;53.180;5.800;2023-05-24T11:12:17;5.72;;;0.60;;
55090;SDS011;40985;53.180;5.800;2023-05-24T11:14:51;4.82;;;0.80;;
55090;SDS011;40985;53.180;5.800;2023-05-24T11:17:20;5.35;;;0.82;;
55090;SDS011;40985;53.180;5.800;2023-05-24T11:19:51;8.88;;;1.17;;
55090;SDS011;40985;53.180;5.800;2023-05-24T11:22:18;12.02;;;1.25;;
55090;SDS011;40985;53.180;5.800;2023-05-24T11:24:48;11.23;;;2.13;;
55090;SDS011;40985;53.180;5.800;2023-05-24T11:27:15;9.27;;;1.25;;
55090;SDS011;40985;53.180;5.800;2023-05-24T11:29:45;10.90;;;1.60;;
55090;SDS011;40985;53.180;5.800;2023-05-24T11:32:15;8.38;;;1.85;;
55090;SDS011;40985;53.180;5.800;2023-05-24T11:34:42;9.65;;;2.03;;
55090;SDS011;40985;53.180;5.800;2023-05-24T11:37:10;8.32;;;1.08;;
55090;SDS011;40985;53.180;5.800;2023-05-24T11:39:36;8.25;;;1.17;;
55090;SDS011;40985;53.180;5.800;2023-05-24T11:42:05;6.90;;;1.40;;
55090;SDS011;40985;53.180;5.800;2023-05-24T11:44:32;7.82;;;1.08;;
55090;SDS011;40985;53.180;5.800;2023-05-24T11:46:59;9.48;;;1.45;;
55090;SDS011;40985;53.180;5.800;2023-05-24T11:49:26;10.63;;;1.27;;
55090;SDS011;40985;53.180;5.800;2023-05-24T11:51:56;5.60;;;0.80;;
55090;SDS011;40985;53.180;5.800;2023-05-24T11:54:23;3.50;;;0.60;;
55090;SDS011;40985;53.180;5.800;2023-05-24T11:56:51;7.90;;;1.33;;
55090;SDS011;40985;53.180;5.800;2023-05-24T11:59:21;9.43;;;0.85;;
55090;SDS011;40985;53.180;5.800;2023-05-24T12:01:50;7.40;;;0.80;;
55090;SDS011;40985;53.180;5.800;2023-05-24T12:04:23;9.07;;;1.42;;
55090;SDS011;40985;53.180;5.800;2023-05-24T12:06:49;6.60;;;0.65;;
55090;SDS011;40985;53.180;5.800;2023-05-24T12:09:15;6.72;;;0.95;;
55090;SDS011;40985;53.180;5.800;2023-05-24T12:11:45;6.60;;;1.20;;
55090;SDS011;40985;53.180;5.800;2023-05-24T12:14:15;5.25;;;0.85;;
55090;SDS011;40985;53.180;5.800;2023-05-24T12:16:46;5.63;;;0.82;;
55090;SDS011;40985;53.180;5.800;2023-05-24T12:19:12;3.28;;;0.90;;
55090;SDS011;40985;53.180;5.800;2023-05-24T12:21:42;7.03;;;1.05;;
55090;SDS011;40985;53.180;5.800;2023-05-24T12:24:11;11.00;;;0.90;;
55090;SDS011;40985;53.180;5.800;2023-05-24T12:26:46;7.65;;;1.05;;
55090;SDS011;40985;53.180;5.800;2023-05-24T12:29:12;5.55;;;0.85;;
55090;SDS011;40985;53.180;5.800;2023-05-24T12:31:43;9.32;;;1.27;;
55090;SDS011;40985;53.180;5.800;2023-05-24T12:34:15;7.47;;;0.98;;
55090;SDS011;40985;53.180;5.800;2023-05-24T12:39:23;7.15;;;0.93;;
55090;SDS011;40985;53.180;5.800;2023-05-24T12:41:55;9.40;;;1.13;;
55090;SDS011;40985;53.180;5.800;2023-05-24T12:44:26;8.32;;;0.75;;
55090;SDS011;40985;53.180;5.800;2023-05-24T12:46:54;9.23;;;1.50;;
55090;SDS011;40985;53.180;5.800;2023-05-24T12:49:21;7.28;;;0.77;;
55090;SDS011;40985;53.180;5.800;2023-05-24T12:51:47;10.48;;;1.25;;
55090;SDS011;40985;53.180;5.800;2023-05-24T12:54:13;6.93;;;0.93;;
55090;SDS011;40985;53.180;5.800;2023-05-24T12:56:39;4.50;;;0.98;;
55090;SDS011;40985;53.180;5.800;2023-05-24T12:59:05;6.90;;;1.02;;
55090;SDS011;40985;53.180;5.800;2023-05-24T13:01:31;6.80;;;0.90;;
55090;SDS011;40985;53.180;5.800;2023-05-24T13:03:56;7.53;;;0.75;;
55090;SDS011;40985;53.180;5.800;2023-05-24T13:06:23;8.13;;;0.98;;
55090;SDS011;40985;53.180;5.800;2023-05-24T13:08:49;6.65;;;1.20;;
55090;SDS011;40985;53.180;5.800;2023-05-24T13:11:15;7.70;;;0.82;;
55090;SDS011;40985;53.180;5.800;2023-05-24T13:13:41;6.20;;;0.85;;
55090;SDS011;40985;53.180;5.800;2023-05-24T13:16:08;4.43;;;0.60;;
55090;SDS011;40985;53.180;5.800;2023-05-24T13:18:35;5.93;;;1.00;;
55090;SDS011;40985;53.180;5.800;2023-05-24T13:21:01;9.20;;;1.10;;
55090;SDS011;40985;53.180;5.800;2023-05-24T13:23:30;7.57;;;1.83;;
55090;SDS011;40985;53.180;5.800;2023-05-24T13:25:57;10.80;;;1.30;;
55090;SDS011;40985;53.180;5.800;2023-05-24T13:28:23;6.95;;;0.90;;
55090;SDS011;40985;53.180;5.800;2023-05-24T13:30:49;4.90;;;1.08;;
55090;SDS011;40985;53.180;5.800;2023-05-24T13:33:15;5.13;;;0.65;;
55090;SDS011;40985;53.180;5.800;2023-05-24T13:35:40;3.83;;;0.70;;
55090;SDS011;40985;53.180;5.800;2023-05-24T13:38:06;6.43;;;0.90;;
55090;SDS011;40985;53.180;5.800;2023-05-24T13:40:33;7.50;;;0.80;;
55090;SDS011;40985;53.180;5.800;2023-05-24T13:42:58;8.93;;;1.08;;
55090;SDS011;40985;53.180;5.800;2023-05-24T13:45:24;9.50;;;1.92;;
55090;SDS011;40985;53.180;5.800;2023-05-24T13:47:51;7.07;;;1.15;;
55090;SDS011;40985;53.180;5.800;2023-05-24T13:50:17;8.75;;;1.08;;
55090;SDS011;40985;53.180;5.800;2023-05-24T13:52:44;9.63;;;0.90;;
55090;SDS011;40985;53.180;5.800;2023-05-24T13:55:10;10.27;;;1.45;;
55090;SDS011;40985;53.180;5.800;2023-05-24T13:57:37;9.80;;;1.05;;
55090;SDS011;40985;53.180;5.800;2023-05-24T14:00:03;7.38;;;1.08;;
55090;SDS011;40985;53.180;5.800;2023-05-24T14:02:29;7.47;;;1.13;;
55090;SDS011;40985;53.180;5.800;2023-05-24T14:04:55;8.70;;;0.95;;
55090;SDS011;40985;53.180;5.800;2023-05-24T14:07:21;9.05;;;1.00;;
55090;SDS011;40985;53.180;5.800;2023-05-24T14:09:46;11.63;;;1.80;;
55090;SDS011;40985;53.180;5.800;2023-05-24T14:12:12;11.38;;;1.38;;
55090;SDS011;40985;53.180;5.800;2023-05-24T14:14:38;6.88;;;1.10;;
55090;SDS011;40985;53.180;5.800;2023-05-24T14:17:04;8.23;;;1.33;;
55090;SDS011;40985;53.180;5.800;2023-05-24T14:19:30;8.65;;;1.25;;
55090;SDS011;40985;53.180;5.800;2023-05-24T14:21:55;9.57;;;1.63;;
55090;SDS011;40985;53.180;5.800;2023-05-24T14:24:21;7.90;;;1.23;;
55090;SDS011;40985;53.180;5.800;2023-05-24T14:26:48;10.00;;;2.28;;
55090;SDS011;40985;53.180;5.800;2023-05-24T14:29:13;7.03;;;1.13;;
55090;SDS011;40985;53.180;5.800;2023-05-24T14:31:39;6.72;;;1.17;;
55090;SDS011;40985;53.180;5.800;2023-05-24T14:34:10;6.80;;;0.70;;
55090;SDS011;40985;53.180;5.800;2023-05-24T14:36:36;10.15;;;1.83;;
55090;SDS011;40985;53.180;5.800;2023-05-24T14:39:03;7.07;;;0.70;;
55090;SDS011;40985;53.180;5.800;2023-05-24T14:41:31;8.23;;;1.15;;
55090;SDS011;40985;53.180;5.800;2023-05-24T14:43:56;10.65;;;0.93;;
55090;SDS011;40985;53.180;5.800;2023-05-24T14:46:22;4.80;;;0.70;;
55090;SDS011;40985;53.180;5.800;2023-05-24T14:48:48;5.47;;;1.00;;
55090;SDS011;40985;53.180;5.800;2023-05-24T14:51:14;6.82;;;1.25;;
55090;SDS011;40985;53.180;5.800;2023-05-24T14:53:40;9.98;;;1.27;;
55090;SDS011;40985;53.180;5.800;2023-05-24T14:56:05;6.60;;;1.02;;
55090;SDS011;40985;53.180;5.800;2023-05-24T14:58:34;6.32;;;0.90;;
55090;SDS011;40985;53.180;5.800;2023-05-24T15:01:00;8.70;;;0.98;;
55090;SDS011;40985;53.180;5.800;2023-05-24T15:03:26;6.32;;;0.88;;
55090;SDS011;40985;53.180;5.800;2023-05-24T15:05:52;8.20;;;1.20;;
55090;SDS011;40985;53.180;5.800;2023-05-24T15:08:18;6.70;;;0.80;;